Time;durP1;ratioP1;P1;durP2;ratioP2;P2;SDS_P1;SDS_P2;PMS_P1;PMS_P2;Temp;Humidity;BMP_temperature;BMP_pressure;BME280_temperature;BME280_humidity;BME280_pressure;Samples;Min_cycle;Max_cycle;Signal;HPM_P1;HPM_P2
2022/01/12 00:00:06;;;;;;;29.17;13.77;;;;;;;-0.78;66.02;101938.53;5103108;28;20044;-68
2022/01/12 00:02:31;;;;;;;33.10;14.60;;;;;;;-0.82;65.99;101924.56;5100252;28;20032;-67
2022/01/12 00:04:57;;;;;;;33.33;15.00;;;;;;;-0.81;65.95;101930.72;5108118;28;20085;-68
2022/01/12 00:07:23;;;;;;;32.40;15.48;;;;;;;-0.87;66.08;101928.16;5103585;28;20455;-68
2022/01/12 00:09:48;;;;;;;32.42;15.30;;;;;;;-0.84;66.34;101934.22;5103247;28;20084;-67
2022/01/12 00:12:14;;;;;;;37.15;17.23;;;;;;;-0.85;66.31;101950.06;5096588;28;20498;-68
2022/01/12 00:14:40;;;;;;;37.28;17.75;;;;;;;-0.84;66.59;101954.47;5098564;28;20119;-67
2022/01/12 00:17:05;;;;;;;37.90;18.77;;;;;;;-0.86;66.43;101956.22;5092139;28;20066;-67
2022/01/12 00:19:31;;;;;;;41.53;18.08;;;;;;;-0.92;66.65;101946.66;5089420;28;20054;-68
2022/01/12 00:21:56;;;;;;;35.97;17.08;;;;;;;-0.90;66.69;101951.91;5098885;28;20073;-67
2022/01/12 00:24:25;;;;;;;37.83;17.48;;;;;;;-0.92;66.72;101951.06;5100857;28;20032;-68
2022/01/12 00:35:03;;;;;;;38.80;18.08;;;;;;;-0.92;66.88;101965.09;5093103;28;20514;-67
2022/01/12 00:37:29;;;;;;;39.17;18.88;;;;;;;-0.95;66.97;101959.00;5092127;28;20039;-67
2022/01/12 00:39:58;;;;;;;41.42;17.75;;;;;;;-0.94;67.01;101955.47;5109454;28;20024;-67
2022/01/12 00:42:26;;;;;;;39.42;18.67;;;;;;;-0.94;67.00;101966.00;5097079;28;20028;-67
2022/01/12 00:44:53;;;;;;;38.90;18.00;;;;;;;-0.93;66.94;101971.22;5102129;28;20026;-66
2022/01/12 00:47:18;;;;;;;43.33;20.00;;;;;;;-0.96;66.92;101962.53;5099647;28;20383;-68
2022/01/12 00:49:44;;;;;;;37.28;18.38;;;;;;;-0.98;66.88;101953.78;5091613;28;20028;-68
2022/01/12 00:52:09;;;;;;;44.15;20.27;;;;;;;-0.98;66.92;101964.31;5102036;28;20020;-67
2022/01/12 00:54:35;;;;;;;40.25;19.08;;;;;;;-1.02;67.48;101967.88;5102999;28;20104;-68
2022/01/12 00:57:00;;;;;;;43.63;18.70;;;;;;;-1.02;67.21;101970.50;5101389;28;20032;-67
2022/01/12 00:59:26;;;;;;;50.38;19.50;;;;;;;-1.08;67.18;101966.22;5098738;28;20476;-67
2022/01/12 01:01:51;;;;;;;41.33;19.85;;;;;;;-1.11;67.05;101961.00;5106686;28;20379;-67
2022/01/12 01:04:17;;;;;;;44.78;19.52;;;;;;;-1.06;66.82;101980.19;5095686;28;20023;-67
2022/01/12 01:06:42;;;;;;;44.42;20.48;;;;;;;-1.08;66.94;101982.00;5099040;28;20035;-67
2022/01/12 01:09:08;;;;;;;39.35;18.77;;;;;;;-1.19;66.95;101959.34;5103478;28;20034;-67
2022/01/12 01:11:33;;;;;;;41.38;19.20;;;;;;;-1.13;67.02;101973.28;5106211;28;20024;-67
2022/01/12 01:14:02;;;;;;;42.38;18.33;;;;;;;-1.16;66.86;101978.59;5101286;28;20059;-67
2022/01/12 01:27:22;;;;;;;43.00;18.23;;;;;;;-1.30;67.01;101977.91;5099522;28;20043;-67
2022/01/12 01:29:48;;;;;;;41.72;17.88;;;;;;;-1.28;67.03;101970.00;5100232;28;20023;-67
2022/01/12 01:32:14;;;;;;;36.80;17.25;;;;;;;-1.27;67.11;101971.72;5103541;28;20023;-67
2022/01/12 01:34:45;;;;;;;36.92;16.00;;;;;;;-1.29;66.98;101986.69;5106325;28;20084;-67
2022/01/12 01:37:11;;;;;;;34.20;16.35;;;;;;;-1.29;67.04;101978.78;5088182;28;20032;-66
2022/01/12 01:39:37;;;;;;;39.45;16.58;;;;;;;-1.46;66.94;101962.34;5092058;28;20031;-67
2022/01/12 01:42:11;;;;;;;36.00;16.13;;;;;;;-1.36;66.95;101980.63;5097483;28;20024;-67
2022/01/12 01:55:19;;;;;;;;;;;;;;;-1.36;66.82;101992.94;5106916;28;20091;-66
2022/01/12 01:57:45;;;;;;;37.33;15.85;;;;;;;-1.39;66.82;101990.34;5093427;28;20447;-66
2022/01/12 02:00:15;;;;;;;34.03;15.32;;;;;;;-1.41;66.93;101998.25;5087913;28;20104;-68
2022/01/12 02:02:43;;;;;;;35.10;15.73;;;;;;;-1.45;66.78;101993.03;5093102;28;20379;-66
2022/01/12 02:05:09;;;;;;;32.42;14.75;;;;;;;-1.43;66.90;102002.66;5098811;28;20104;-67
2022/01/12 02:07:35;;;;;;;35.17;15.30;;;;;;;-1.44;66.96;102005.28;5098475;28;20027;-68
2022/01/12 02:10:00;;;;;;;35.03;14.60;;;;;;;-1.44;67.02;102005.28;5104551;28;20028;-67
2022/01/12 02:12:28;;;;;;;34.35;14.48;;;;;;;-1.52;66.58;101994.00;5096695;28;20020;-67
2022/01/12 02:14:55;;;;;;;34.17;14.63;;;;;;;-1.46;66.95;102009.69;5093617;28;20073;-67
2022/01/12 02:17:25;;;;;;;37.63;15.25;;;;;;;-1.45;67.14;102011.47;5094957;28;20059;-67
2022/01/12 02:36:32;;;;;;;34.05;14.95;;;;;;;-1.48;66.85;102029.91;5105724;28;20204;-68
2022/01/12 02:41:44;;;;;;;28.58;13.88;;;;;;;-1.51;66.93;102022.94;5099906;28;20089;-67
2022/01/12 02:54:49;;;;;;;29.85;14.07;;;;;;;-1.58;67.04;102036.16;5105272;28;20446;-68
2022/01/12 02:57:15;;;;;;;34.05;15.57;;;;;;;-1.59;66.92;102034.41;5100156;28;20031;-67
2022/01/12 02:59:59;;;;;;;38.35;16.58;;;;;;;-1.57;67.24;102040.53;5109643;28;20037;-68
2022/01/12 03:07:39;;;;;;;31.17;13.13;;;;;;;-1.56;66.85;102034.38;5107267;28;20039;-67
2022/01/12 03:10:06;;;;;;;34.97;14.45;;;;;;;-1.65;67.04;102021.34;5106209;27;20487;-67
2022/01/12 03:12:35;;;;;;;35.67;15.25;;;;;;;-1.56;66.88;102029.09;5102433;28;20103;-66
2022/01/12 03:15:00;;;;;;;35.65;16.23;;;;;;;-1.55;66.96;102038.75;5095988;28;20105;-67
2022/01/12 03:17:25;;;;;;;33.50;14.52;;;;;;;-1.55;66.98;102036.97;5098819;28;20054;-68
2022/01/12 03:19:51;;;;;;;36.78;15.32;;;;;;;-1.55;67.02;102044.88;5099859;28;20035;-66
2022/01/12 03:22:16;;;;;;;34.13;14.25;;;;;;;-1.55;66.87;102046.66;5097249;28;20027;-67
2022/01/12 03:24:42;;;;;;;29.40;13.30;;;;;;;-1.57;67.15;102041.41;5093175;28;20066;-67
2022/01/12 03:27:12;;;;;;;32.40;14.13;;;;;;;-1.57;66.98;102049.28;5093816;28;20467;-66
2022/01/12 03:29:41;;;;;;;28.88;13.60;;;;;;;-1.55;66.81;102051.91;5094489;28;20519;-68
2022/01/12 03:32:07;;;;;;;32.65;14.27;;;;;;;-1.55;66.77;102046.66;5098727;28;20776;-67
2022/01/12 03:34:34;;;;;;;34.45;14.07;;;;;;;-1.57;66.75;102040.53;5095098;28;20119;-67
2022/01/12 03:37:39;;;;;;;32.05;13.05;;;;;;;-1.56;67.00;102050.16;5100164;28;20054;-67
2022/01/12 03:39:59;;;;;;;34.72;14.63;;;;;;;-1.60;66.68;102037.94;5095497;28;20394;-67
2022/01/12 03:42:25;;;;;;;28.23;13.48;;;;;;;-1.53;66.46;102066.78;5092373;28;20024;-67
2022/01/12 03:44:50;;;;;;;29.38;12.15;;;;;;;-1.58;66.98;102051.94;5092418;28;20744;-67
2022/01/12 03:47:17;;;;;;;31.13;14.15;;;;;;;-1.60;67.14;102065.09;5097726;28;20117;-67
2022/01/12 03:49:42;;;;;;;29.35;13.90;;;;;;;-1.65;66.97;102059.00;5097787;28;20039;-68
2022/01/12 03:52:07;;;;;;;34.38;15.38;;;;;;;-1.67;67.15;102057.28;5098212;28;20379;-67
2022/01/12 03:54:33;;;;;;;31.13;14.52;;;;;;;-1.74;67.23;102056.47;5095649;28;20022;-67
2022/01/12 03:56:59;;;;;;;36.78;14.73;;;;;;;-1.76;67.41;102052.13;5102682;28;20044;-68
2022/01/12 03:59:25;;;;;;;32.00;14.23;;;;;;;-1.81;67.27;102056.56;5107664;28;20081;-66
2022/01/12 04:01:50;;;;;;;30.70;14.38;;;;;;;-1.85;67.29;102062.72;5104138;28;20027;-67
2022/01/12 04:04:24;;;;;;;34.53;14.85;;;;;;;-1.89;67.59;102058.38;5097625;28;20028;-67
2022/01/12 04:09:34;;;;;;;33.83;14.85;;;;;;;-2.02;67.68;102049.75;5098126;28;20116;-68
2022/01/12 04:11:59;;;;;;;32.25;14.38;;;;;;;-2.06;67.70;102062.94;5090224;28;20068;-66
2022/01/12 04:14:25;;;;;;;37.10;15.15;;;;;;;-2.11;67.95;102067.34;5104463;28;20024;-66
2022/01/12 04:16:50;;;;;;;34.63;14.70;;;;;;;-2.30;67.94;102037.72;5098024;28;20040;-67
2022/01/12 04:19:16;;;;;;;32.70;14.57;;;;;;;-2.19;67.99;102066.56;5095056;28;20039;-68
2022/01/12 04:21:46;;;;;;;33.45;14.10;;;;;;;-2.39;68.04;102041.31;5103601;28;20016;-67
2022/01/12 04:24:13;;;;;;;30.17;12.98;;;;;;;-2.36;68.25;102064.03;5089626;28;20050;-66
2022/01/12 04:26:39;;;;;;;36.60;14.65;;;;;;;-2.46;68.64;102051.84;5094819;28;20032;-67
2022/01/12 04:29:06;;;;;;;28.92;13.82;;;;;;;-2.44;68.86;102064.13;5096882;28;20058;-68
2022/01/12 04:31:33;;;;;;;32.38;15.07;;;;;;;-2.49;69.17;102065.91;5100158;28;20089;-66
2022/01/12 04:33:58;;;;;;;34.20;14.15;;;;;;;-2.48;69.01;102074.66;5093780;28;20034;-66
2022/01/12 04:36:24;;;;;;;32.45;14.25;;;;;;;-2.57;68.99;102070.34;5095210;28;20115;-68
2022/01/12 04:38:49;;;;;;;33.78;13.93;;;;;;;-2.61;68.97;102071.22;5097307;28;20031;-67
2022/01/12 04:41:15;;;;;;;35.15;14.35;;;;;;;-2.65;69.35;102072.13;5099812;28;20016;-68
2022/01/12 04:43:42;;;;;;;38.10;13.90;;;;;;;-2.71;69.26;102069.53;5095033;28;20089;-68
2022/01/12 04:46:22;;;;;;;34.20;13.05;;;;;;;-2.68;69.29;102071.25;5096624;28;20107;-68
2022/01/12 04:48:52;;;;;;;31.33;13.75;;;;;;;-2.70;69.82;102079.16;5088518;28;20038;-67
2022/01/12 04:51:19;;;;;;;27.23;13.52;;;;;;;-2.75;69.76;102067.81;5098326;28;20036;-67
2022/01/12 04:53:44;;;;;;;29.98;13.77;;;;;;;-2.75;69.28;102087.94;5092853;28;20030;-68
2022/01/12 04:56:10;;;;;;;28.08;12.93;;;;;;;-2.83;69.47;102077.47;5101616;28;20767;-67
2022/01/12 04:58:36;;;;;;;29.95;13.23;;;;;;;-2.83;69.80;102082.72;5096765;28;20103;-68
2022/01/12 05:01:09;;;;;;;32.72;13.48;;;;;;;-2.88;69.98;102084.53;5102988;28;20132;-68
2022/01/12 05:06:36;;;;;;;;;;;;;;;-2.91;69.68;102088.91;5094111;28;20046;-68
2022/01/12 05:09:11;;;;;;;30.27;14.25;;;;;;;-2.97;69.60;102092.44;5093817;28;19916;-68
2022/01/12 05:14:23;;;;;;;32.20;12.35;;;;;;;-3.22;70.31;102069.78;5093948;28;20080;-68
2022/01/12 05:16:49;;;;;;;27.50;13.13;;;;;;;-3.11;70.06;102094.25;5095046;28;20639;-68
2022/01/12 05:19:15;;;;;;;30.13;13.35;;;;;;;-3.17;70.46;102094.28;5101741;28;20128;-67
2022/01/12 05:21:40;;;;;;;31.77;12.95;;;;;;;-3.22;70.73;102093.41;5091397;28;20076;-67
2022/01/12 05:24:07;;;;;;;32.45;13.23;;;;;;;-3.28;70.80;102085.59;5096073;28;20028;-67
2022/01/12 05:26:33;;;;;;;32.58;13.10;;;;;;;-3.23;71.04;102091.66;5095154;28;20068;-67
2022/01/12 05:28:59;;;;;;;32.70;14.65;;;;;;;-3.31;71.34;102101.31;5094996;28;20064;-67
2022/01/12 05:31:25;;;;;;;30.90;13.65;;;;;;;-3.34;71.89;102110.94;5095867;28;20200;-67
2022/01/12 05:33:51;;;;;;;35.72;14.02;;;;;;;-3.36;72.16;102116.19;5091585;28;20028;-67
2022/01/12 05:36:18;;;;;;;33.33;13.52;;;;;;;-3.42;72.16;102113.56;5086772;28;20036;-68
2022/01/12 05:38:44;;;;;;;35.22;13.98;;;;;;;-3.45;72.08;102126.69;5096882;28;20046;-68
2022/01/12 05:41:10;;;;;;;36.65;13.85;;;;;;;-3.50;71.72;102128.47;5097625;28;20685;-67
2022/01/12 05:43:37;;;;;;;33.63;14.00;;;;;;;-3.59;71.83;102123.25;5099607;28;20051;-67
2022/01/12 05:46:14;;;;;;;33.80;13.90;;;;;;;-3.65;72.36;102122.38;5098266;28;20038;-67
2022/01/12 05:51:27;;;;;;;32.90;14.88;;;;;;;-3.79;71.86;102127.63;5101660;28;20039;-66
2022/01/12 05:53:53;;;;;;;30.48;13.63;;;;;;;-3.82;72.35;102125.03;5101388;28;20406;-71
2022/01/12 05:56:19;;;;;;;33.35;13.82;;;;;;;-3.89;72.64;102127.63;5098599;28;20024;-72
2022/01/12 05:58:45;;;;;;;29.73;13.02;;;;;;;-3.87;73.34;102137.22;5105472;28;20092;-72
2022/01/12 06:01:10;;;;;;;39.53;15.07;;;;;;;-3.88;73.73;102138.13;5108695;28;20467;-72
2022/01/12 06:03:36;;;;;;;36.38;15.52;;;;;;;-3.91;74.07;102140.75;5110727;28;20345;-72
2022/01/12 06:06:02;;;;;;;33.22;13.55;;;;;;;-3.90;74.41;102141.63;5103907;28;20390;-73
2022/01/12 06:08:27;;;;;;;34.30;14.48;;;;;;;-3.93;74.85;102145.13;5111409;28;20031;-72
2022/01/12 06:10:53;;;;;;;29.55;13.98;;;;;;;-3.96;74.77;102142.50;5101700;28;20016;-73
2022/01/12 06:13:18;;;;;;;31.98;14.13;;;;;;;-3.90;74.37;102162.59;5102141;28;20032;-72
2022/01/12 06:15:44;;;;;;;30.80;12.95;;;;;;;-3.97;74.33;102155.59;5103798;28;20046;-71
2022/01/12 06:18:09;;;;;;;37.05;13.95;;;;;;;-4.00;74.83;102152.97;5101067;28;20048;-71
2022/01/12 06:20:35;;;;;;;37.17;15.73;;;;;;;-4.04;74.39;102149.47;5103621;28;20538;-71
2022/01/12 06:23:00;;;;;;;36.75;15.32;;;;;;;-3.94;74.30;102166.94;5105741;28;20072;-70
2022/01/12 06:25:26;;;;;;;41.90;16.25;;;;;;;-3.96;74.82;102162.59;5108725;28;20023;-70
2022/01/12 06:27:55;;;;;;;37.78;15.20;;;;;;;-4.05;74.36;102145.13;5108539;28;20020;-72
2022/01/12 06:32:55;;;;;;;39.78;15.93;;;;;;;-3.97;74.86;102166.09;5102265;28;20586;-71
2022/01/12 06:35:21;;;;;;;39.55;16.08;;;;;;;-4.01;74.31;102169.56;5105214;28;20518;-72
2022/01/12 06:37:47;;;;;;;42.38;16.95;;;;;;;-4.06;73.60;102169.56;5101244;28;20039;-68
2022/01/12 06:40:14;;;;;;;40.00;17.95;;;;;;;-4.06;73.48;102166.94;5103947;28;20023;-67
2022/01/12 06:42:40;;;;;;;52.65;22.20;;;;;;;-4.04;74.33;102177.41;5098929;28;20494;-72
2022/01/12 06:45:06;;;;;;;70.07;25.08;;;;;;;-4.12;74.36;102163.44;5106080;28;20019;-71
2022/01/12 06:47:32;;;;;;;64.28;25.50;;;;;;;-4.07;74.92;102177.44;5105120;28;20053;-72
2022/01/12 06:49:57;;;;;;;63.55;24.02;;;;;;;-4.08;74.50;102183.53;5100771;28;20028;-71
2022/01/12 06:52:23;;;;;;;62.50;23.40;;;;;;;-4.16;74.05;102161.69;5103949;28;20072;-70
2022/01/12 06:54:49;;;;;;;52.85;22.45;;;;;;;-4.12;74.58;102179.16;5105995;28;20436;-70
2022/01/12 06:57:16;;;;;;;50.78;19.70;;;;;;;-4.18;74.43;102176.53;5104250;28;20020;-70
2022/01/12 06:59:41;;;;;;;54.22;19.42;;;;;;;-4.14;74.66;102192.25;5107226;28;20102;-72
2022/01/12 07:02:07;;;;;;;43.92;18.73;;;;;;;-4.17;74.95;102189.63;5104399;28;20169;-71
2022/01/12 07:04:32;;;;;;;45.17;18.23;;;;;;;-4.19;74.29;102191.38;5109272;28;20027;-71
2022/01/12 07:06:58;;;;;;;38.80;17.38;;;;;;;-4.18;74.88;102198.38;5101424;28;20024;-71
2022/01/12 07:09:23;;;;;;;38.65;17.40;;;;;;;-4.22;74.84;102190.50;5100393;28;20097;-71
2022/01/12 07:11:49;;;;;;;39.85;17.92;;;;;;;-4.19;75.08;102201.88;5102388;28;20032;-70
2022/01/12 07:14:15;;;;;;;62.08;22.73;;;;;;;-4.25;75.34;102188.75;5103914;28;20027;-72
2022/01/12 07:16:40;;;;;;;53.55;21.92;;;;;;;-4.13;75.99;102216.72;5105413;28;20044;-71
2022/01/12 07:19:05;;;;;;;47.58;20.88;;;;;;;-4.09;76.97;102219.34;5102099;28;20063;-70
2022/01/12 07:21:31;;;;;;;42.20;18.92;;;;;;;-4.08;77.47;102214.97;5100591;28;20019;-70
2022/01/12 07:23:57;;;;;;;45.38;19.00;;;;;;;-3.93;76.77;102223.75;5100024;28;20028;-71
2022/01/12 07:26:23;;;;;;;44.28;18.05;;;;;;;-3.91;76.92;102227.22;5098295;28;20073;-67
2022/01/12 07:28:49;;;;;;;42.00;17.48;;;;;;;-3.96;76.83;102201.88;5099858;27;20031;-67
2022/01/12 07:31:15;;;;;;;41.83;17.33;;;;;;;-3.82;77.09;102227.22;5107507;28;20031;-71
2022/01/12 07:33:41;;;;;;;39.35;17.42;;;;;;;-3.78;76.93;102221.13;5103270;28;20027;-70
2022/01/12 07:36:06;;;;;;;43.40;16.95;;;;;;;-3.77;76.96;102217.59;5108201;28;20019;-70
2022/01/12 07:38:32;;;;;;;43.88;16.73;;;;;;;-3.76;76.97;102208.91;5100022;28;20031;-70
2022/01/12 07:40:58;;;;;;;42.35;17.23;;;;;;;-3.61;77.23;102229.84;5096118;28;20047;-71
2022/01/12 07:43:23;;;;;;;34.78;16.15;;;;;;;-3.60;76.64;102221.13;5105527;28;20086;-71
2022/01/12 07:45:49;;;;;;;41.65;16.27;;;;;;;-3.51;77.05;102236.84;5097533;28;20526;-71
2022/01/12 07:48:14;;;;;;;32.33;15.57;;;;;;;-3.42;76.97;102241.22;5105122;28;20028;-72
2022/01/12 07:50:41;;;;;;;33.25;14.77;;;;;;;-3.39;76.75;102234.22;5106744;28;20115;-71
2022/01/12 07:53:07;;;;;;;40.90;17.55;;;;;;;-3.28;76.67;102245.59;5105081;28;20031;-73
2022/01/12 07:55:32;;;;;;;37.45;14.90;;;;;;;-3.29;76.30;102222.84;5098973;28;20043;-71
2022/01/12 07:57:58;;;;;;;37.42;15.88;;;;;;;-3.17;75.97;102235.94;5097841;28;20027;-72
2022/01/12 08:00:24;;;;;;;34.42;15.48;;;;;;;-3.05;75.42;102238.56;5101588;28;20106;-71
2022/01/12 08:02:50;;;;;;;34.88;15.23;;;;;;;-2.94;75.46;102244.66;5103989;28;20522;-71
2022/01/12 08:05:17;;;;;;;34.45;14.80;;;;;;;-2.86;75.00;102240.28;5103888;28;20056;-71
2022/01/12 08:07:43;;;;;;;38.45;15.50;;;;;;;-2.80;74.56;102237.59;5095648;28;20481;-72
2022/01/12 08:10:09;;;;;;;33.83;14.60;;;;;;;-2.80;73.84;102221.84;5101343;28;20535;-67
2022/01/12 08:12:36;;;;;;;38.72;16.13;;;;;;;-2.66;73.63;102237.56;5086855;28;20024;-67
2022/01/12 08:15:04;;;;;;;34.60;16.08;;;;;;;-2.54;72.86;102246.25;5104942;28;20035;-67
2022/01/12 08:17:30;;;;;;;35.25;14.52;;;;;;;-2.42;72.85;102255.84;5104599;28;20043;-67
2022/01/12 08:19:57;;;;;;;40.05;16.45;;;;;;;-2.39;72.42;102259.34;5099349;28;20051;-66
2022/01/12 08:22:22;;;;;;;34.25;15.00;;;;;;;-2.30;72.43;102249.69;5096820;28;20027;-68
2022/01/12 08:24:48;;;;;;;32.70;14.63;;;;;;;-2.23;72.02;102268.03;5105494;28;20475;-67
2022/01/12 08:27:13;;;;;;;32.28;14.85;;;;;;;-2.13;71.12;102269.72;5093197;28;20115;-68
2022/01/12 08:29:39;;;;;;;35.80;15.32;;;;;;;-2.08;70.76;102278.47;5100986;28;20039;-67
2022/01/12 08:32:05;;;;;;;35.58;15.05;;;;;;;-2.04;70.62;102277.56;5101465;28;20031;-67
2022/01/12 08:34:30;;;;;;;38.13;16.05;;;;;;;-2.03;70.18;102268.81;5099308;27;20502;-66
2022/01/12 08:36:56;;;;;;;34.50;15.35;;;;;;;-1.90;69.99;102288.03;5098675;28;20535;-67
2022/01/12 08:39:22;;;;;;;34.10;16.63;;;;;;;-1.80;69.61;102292.34;5105919;28;20038;-67
2022/01/12 08:41:48;;;;;;;34.78;15.52;;;;;;;-1.86;69.12;102277.47;5098164;28;20498;-67
2022/01/12 08:44:14;;;;;;;38.22;16.65;;;;;;;-1.78;68.64;102290.59;5103660;28;20032;-67
2022/01/12 08:46:41;;;;;;;36.00;16.08;;;;;;;-1.66;68.68;102303.63;5106795;28;20039;-67
2022/01/12 08:49:07;;;;;;;34.53;17.27;;;;;;;-1.59;67.95;102302.72;5104165;28;20028;-67
2022/01/12 08:51:33;;;;;;;36.78;16.38;;;;;;;-1.64;66.79;102286.09;5093290;28;20085;-67
2022/01/12 08:53:58;;;;;;;39.13;16.92;;;;;;;-1.53;67.07;102302.66;5094603;28;20036;-68
2022/01/12 08:56:24;;;;;;;39.13;16.75;;;;;;;-1.45;66.91;102303.50;5094373;28;20038;-68
2022/01/12 08:58:49;;;;;;;43.95;18.40;;;;;;;-1.36;66.46;102311.34;5093036;28;20118;-69
2022/01/12 09:01:15;;;;;;;39.25;17.60;;;;;;;-1.30;66.84;102309.50;5097216;28;20028;-68
2022/01/12 09:03:41;;;;;;;39.92;17.75;;;;;;;-1.18;66.11;102311.19;5097075;28;20082;-68
2022/01/12 09:06:07;;;;;;;35.55;16.48;;;;;;;-1.16;65.62;102304.16;5092826;28;20042;-68
2022/01/12 09:08:34;;;;;;;41.28;16.88;;;;;;;-1.13;65.59;102304.97;5106247;28;20031;-67
2022/01/12 09:11:00;;;;;;;41.08;17.30;;;;;;;-1.01;65.44;102317.16;5093273;27;20028;-67
2022/01/12 09:13:26;;;;;;;45.67;19.52;;;;;;;-1.04;65.53;102304.91;5096822;28;20433;-67
2022/01/12 09:15:51;;;;;;;39.20;17.65;;;;;;;-0.94;65.16;102314.47;5096945;28;20058;-67
2022/01/12 09:18:18;;;;;;;39.60;17.30;;;;;;;-0.90;65.15;102307.41;5102120;28;20044;-68
2022/01/12 09:20:44;;;;;;;41.58;19.58;;;;;;;-0.91;65.13;102306.53;5088630;28;20078;-68
2022/01/12 09:23:10;;;;;;;42.28;19.70;;;;;;;-0.81;64.88;102305.56;5096816;28;20382;-68
2022/01/12 09:25:39;;;;;;;43.90;20.17;;;;;;;-0.75;64.23;102300.22;5099949;28;20027;-67
2022/01/12 09:28:07;;;;;;;44.78;19.60;;;;;;;-0.78;64.10;102291.47;5091495;28;20456;-68
2022/01/12 09:30:33;;;;;;;46.03;19.50;;;;;;;-0.65;63.99;102298.38;5098161;28;20036;-68
2022/01/12 09:32:59;;;;;;;46.45;20.17;;;;;;;-0.68;63.89;102285.25;5099751;28;20479;-67
2022/01/12 09:35:26;;;;;;;37.92;17.92;;;;;;;-0.55;63.64;102292.13;5099235;28;20058;-69
2022/01/12 09:37:52;;;;;;;41.42;17.92;;;;;;;-0.52;63.38;102292.94;5100389;28;20030;-69
2022/01/12 09:40:18;;;;;;;45.30;19.15;;;;;;;-0.55;63.16;102263.16;5099299;28;20032;-67
2022/01/12 09:42:44;;;;;;;44.28;19.95;;;;;;;-0.41;63.00;102285.81;5095002;28;20039;-68
2022/01/12 09:45:15;;;;;;;40.65;18.42;;;;;;;-0.37;63.10;102278.72;5097831;28;20031;-73
2022/01/12 09:47:42;;;;;;;49.30;19.90;;;;;;;-0.35;63.04;102277.81;5096186;28;20020;-72
2022/01/12 09:50:09;;;;;;;42.92;19.42;;;;;;;-0.28;63.06;102282.16;5097379;28;20103;-71
2022/01/12 09:52:35;;;;;;;39.20;17.65;;;;;;;-0.25;62.72;102278.59;5102672;28;20081;-72
2022/01/12 09:55:00;;;;;;;47.05;19.48;;;;;;;-0.20;62.80;102272.34;5099870;28;20015;-72
2022/01/12 09:57:26;;;;;;;42.13;19.38;;;;;;;-0.14;62.31;102277.56;5095027;28;20020;-72
2022/01/12 09:59:51;;;;;;;46.78;20.38;;;;;;;-0.13;62.31;102267.84;5098101;28;20028;-71
2022/01/12 10:02:20;;;;;;;39.65;18.50;;;;;;;-0.07;62.24;102267.78;5103746;28;20028;-71
2022/01/12 10:04:45;;;;;;;41.40;18.58;;;;;;;-0.06;62.04;102266.91;5103860;28;20731;-72
2022/01/12 10:07:11;;;;;;;41.72;18.38;;;;;;;-0.01;61.60;102267.72;5099245;28;20087;-73
2022/01/12 10:09:45;;;;;;;38.67;18.05;;;;;;;0.08;61.29;102272.88;5101849;28;20023;-72
2022/01/12 10:12:16;;;;;;;47.58;19.13;;;;;;;0.11;61.11;102267.53;5099951;28;20043;-72
2022/01/12 10:14:42;;;;;;;48.70;17.88;;;;;;;0.15;61.27;102269.25;5093631;28;20081;-72
2022/01/12 10:17:08;;;;;;;44.58;17.60;;;;;;;0.18;60.44;102255.13;5102510;28;20044;-71
2022/01/12 10:19:34;;;;;;;36.92;18.48;;;;;;;0.18;60.59;102261.28;5099649;28;20039;-71
2022/01/12 10:22:02;;;;;;;39.97;18.67;;;;;;;0.24;60.92;102260.31;5096623;28;20031;-71
2022/01/12 10:24:28;;;;;;;38.10;17.85;;;;;;;0.27;61.45;102263.78;5101080;28;20080;-71
2022/01/12 10:26:55;;;;;;;37.53;17.17;;;;;;;0.25;61.03;102252.38;5102388;28;20027;-71
2022/01/12 10:29:26;;;;;;;37.60;17.08;;;;;;;0.29;60.78;102253.22;5099400;28;20098;-72
2022/01/12 10:32:00;;;;;;;37.15;15.85;;;;;;;0.35;60.56;102250.50;5101810;28;20024;-72
2022/01/12 10:34:29;;;;;;;34.38;16.23;;;;;;;0.38;60.33;102253.94;5103797;28;20031;-72
2022/01/12 10:36:57;;;;;;;41.97;17.50;;;;;;;0.37;59.68;102233.72;5103720;28;20024;-71
2022/01/12 10:39:26;;;;;;;34.65;16.63;;;;;;;0.49;59.42;102248.50;5100977;28;20054;-70
2022/01/12 10:42:06;;;;;;;37.67;16.08;;;;;;;0.51;59.26;102239.66;5105831;28;20072;-70
2022/01/12 10:44:34;;;;;;;35.30;16.20;;;;;;;0.49;59.54;102240.56;5097821;28;20114;-70
2022/01/12 10:47:18;;;;;;;36.20;16.30;;;;;;;0.55;58.91;102249.25;5094358;28;20420;-70
2022/01/12 10:49:58;;;;;;;32.17;15.68;;;;;;;0.58;58.21;102237.78;5095847;28;20023;-70
2022/01/12 10:52:27;;;;;;;38.53;16.08;;;;;;;0.62;57.91;102245.66;5101268;28;20092;-70
2022/01/12 10:54:56;;;;;;;36.88;16.20;;;;;;;0.62;58.57;102240.38;5107644;28;20489;-70
2022/01/12 10:57:23;;;;;;;36.28;17.98;;;;;;;0.66;58.44;102247.31;5100178;28;20176;-70
2022/01/12 11:00:09;;;;;;;36.65;16.88;;;;;;;0.68;58.16;102248.16;5106327;28;20023;-71
2022/01/12 11:02:37;;;;;;;38.90;16.75;;;;;;;0.70;57.95;102251.66;5082226;28;20038;-71
2022/01/12 11:05:07;;;;;;;35.85;16.13;;;;;;;0.73;58.49;102248.97;5096833;28;20396;-70
2022/01/12 11:07:32;;;;;;;34.67;16.23;;;;;;;0.78;58.39;102246.25;5093681;28;20539;-71
2022/01/12 11:10:02;;;;;;;42.30;17.70;;;;;;;0.73;58.21;102237.53;5097730;28;20107;-71
2022/01/12 11:12:28;;;;;;;41.72;19.02;;;;;;;0.86;57.65;102239.94;5102923;28;20407;-70
2022/01/12 11:14:54;;;;;;;40.25;17.92;;;;;;;0.85;57.77;102238.19;5103801;28;20070;-71
2022/01/12 11:17:20;;;;;;;38.33;17.88;;;;;;;0.80;57.36;102224.19;5099358;28;20094;-69
2022/01/12 11:20:04;;;;;;;39.95;17.92;;;;;;;0.88;57.51;102234.63;5098754;28;20061;-70
2022/01/12 11:23:02;;;;;;;27.42;11.77;;;;;;;0.88;57.42;102243.44;5103442;28;20067;-70
2022/01/12 11:25:32;;;;;;;46.92;17.00;;;;;;;0.91;57.44;102237.22;5102218;28;20020;-71
2022/01/12 11:28:19;;;;;;;37.00;15.75;;;;;;;0.94;57.23;102248.59;5101708;28;20024;-72
2022/01/12 11:30:50;;;;;;;31.98;15.18;;;;;;;0.96;57.33;102240.63;5100658;28;20227;-70
2022/01/12 11:33:18;;;;;;;38.30;16.80;;;;;;;0.97;57.30;102240.59;5101268;28;20039;-70
2022/01/12 11:35:49;;;;;;;34.67;14.48;;;;;;;1.03;57.01;102255.50;5098206;28;20034;-70
2022/01/12 11:38:27;;;;;;;33.65;15.20;;;;;;;1.05;56.68;102246.63;5106542;28;20484;-71
2022/01/12 11:40:55;;;;;;;32.20;15.23;;;;;;;1.09;57.10;102250.94;5104419;28;20032;-69
2022/01/12 11:43:29;;;;;;;33.90;16.77;;;;;;;1.06;56.64;102243.06;5101909;28;20037;-71
2022/01/12 11:46:45;;;;;;;31.98;15.10;;;;;;;1.13;56.66;102238.56;5101911;28;20023;-70
2022/01/12 11:49:11;;;;;;;37.17;15.10;;;;;;;1.13;56.25;102235.94;5020295;28;20034;-71
2022/01/12 11:51:40;;;;;;;30.45;15.18;;;;;;;1.18;56.58;102240.22;5094659;28;20058;-71
2022/01/12 11:54:08;;;;;;;32.40;15.82;;;;;;;1.21;56.45;102237.53;5096821;28;20103;-70
2022/01/12 11:56:34;;;;;;;28.63;14.48;;;;;;;1.07;56.52;102222.81;5100690;28;20103;-69
2022/01/12 11:59:07;;;;;;;32.60;14.27;;;;;;;1.23;56.56;102235.69;5095820;28;20101;-69
2022/01/12 12:02:05;;;;;;;28.48;14.52;;;;;;;1.31;56.19;102241.72;5093160;28;20484;-69
2022/01/12 12:04:32;;;;;;;28.77;13.20;;;;;;;1.23;56.46;102219.84;5098703;28;20522;-69
2022/01/12 12:07:04;;;;;;;30.67;15.18;;;;;;;1.34;56.22;102241.66;5101075;28;20028;-71
2022/01/12 12:09:52;;;;;;;32.45;14.63;;;;;;;1.37;55.33;102233.69;5102777;28;20499;-71
2022/01/12 12:12:20;;;;;;;32.22;15.30;;;;;;;1.36;55.25;102233.72;5103925;28;20024;-71
2022/01/12 12:14:48;;;;;;;30.45;15.10;;;;;;;1.36;55.85;102236.34;5094671;28;20046;-70
2022/01/12 12:17:16;;;;;;;30.73;15.07;;;;;;;1.36;55.55;102229.28;5096935;28;20673;-70
2022/01/12 12:19:42;;;;;;;29.88;14.13;;;;;;;1.40;54.98;102233.63;5098547;28;20031;-68
2022/01/12 12:22:15;;;;;;;31.27;14.50;;;;;;;1.42;54.83;102229.16;5102891;28;20067;-67
2022/01/12 12:24:41;;;;;;;31.67;14.23;;;;;;;1.42;55.85;102228.31;5102393;28;20039;-68
2022/01/12 12:27:10;;;;;;;28.85;14.57;;;;;;;1.43;55.94;102227.41;5106486;28;20077;-67
2022/01/12 12:29:36;;;;;;;31.83;15.27;;;;;;;1.45;55.14;102223.81;5105051;28;20023;-66
2022/01/12 12:32:03;;;;;;;33.13;14.32;;;;;;;1.46;55.33;102220.28;5109847;28;20460;-68